createdAt,value
2022-08-02T00:02:40.737Z,39.74
2022-08-02T00:05:27.097Z,39.65
2022-08-02T00:08:13.116Z,39.75
2022-08-02T00:10:59.261Z,39.74
2022-08-02T00:13:45.519Z,39.77
2022-08-02T00:16:37.441Z,40.30
2022-08-02T00:19:24.189Z,39.93
2022-08-02T00:22:10.356Z,40.00
2022-08-02T00:24:56.674Z,40.08
2022-08-02T00:27:42.657Z,40.27
2022-08-02T00:30:28.412Z,40.21
2022-08-02T00:33:14.826Z,40.48
2022-08-02T00:36:00.689Z,40.52
2022-08-02T00:38:48.074Z,40.64
2022-08-02T00:41:33.989Z,40.75
2022-08-02T00:44:21.250Z,40.79
2022-08-02T00:47:07.429Z,40.84
2022-08-02T00:49:53.358Z,40.93
2022-08-02T00:52:39.321Z,41.02
2022-08-02T00:55:31.283Z,41.06
2022-08-02T00:58:17.350Z,41.10
2022-08-02T01:01:03.754Z,41.16
2022-08-02T01:03:49.997Z,41.31
2022-08-02T01:06:37.366Z,41.43
2022-08-02T01:09:23.260Z,41.38
2022-08-02T01:12:09.802Z,41.49
2022-08-02T01:15:00.451Z,41.62
2022-08-02T01:17:51.209Z,41.72
2022-08-02T01:20:49.791Z,41.88
2022-08-02T01:23:57.928Z,41.93
2022-08-02T01:27:21.273Z,41.80
2022-08-02T01:30:08.610Z,41.97
2022-08-02T01:32:58.949Z,42.10
2022-08-02T01:35:50.885Z,42.09
2022-08-02T01:38:43.833Z,42.33
2022-08-02T01:41:30.813Z,42.33
2022-08-02T01:44:17.859Z,42.48
2022-08-02T01:47:19.854Z,42.50
2022-08-02T01:50:06.307Z,42.45
2022-08-02T01:52:54.042Z,42.53
2022-08-02T01:55:57.055Z,42.50
2022-08-02T01:58:45.766Z,42.68
2022-08-02T02:01:33.395Z,42.68
2022-08-02T02:04:22.195Z,42.79
2022-08-02T02:07:08.689Z,42.75
2022-08-02T02:09:54.923Z,43.01
2022-08-02T02:12:43.151Z,43.23
2022-08-02T02:15:31.309Z,43.28
2022-08-02T02:18:23.773Z,43.33
2022-08-02T02:21:10.441Z,43.30
2022-08-02T02:23:56.637Z,43.35
2022-08-02T02:26:52.100Z,43.43
2022-08-02T02:29:43.301Z,43.48
2022-08-02T02:32:29.746Z,43.58
2022-08-02T02:35:16.750Z,43.63
2022-08-02T02:38:04.481Z,43.51
2022-08-02T02:40:50.628Z,43.67
2022-08-02T02:43:38.318Z,43.76
2022-08-02T02:46:26.267Z,44.11
2022-08-02T02:49:13.381Z,43.91
2022-08-02T02:51:59.614Z,43.70
2022-08-02T02:54:49.132Z,43.93
2022-08-02T02:57:37.218Z,43.83
2022-08-02T03:00:43.507Z,44.04
2022-08-02T03:03:30.132Z,43.88
2022-08-02T03:06:16.393Z,43.99
2022-08-02T03:09:02.202Z,44.03
2022-08-02T03:11:48.659Z,44.13
2022-08-02T03:14:35.047Z,44.36
2022-08-02T03:17:21.099Z,44.39
2022-08-02T03:20:10.043Z,44.62
2022-08-02T03:22:55.948Z,44.37
2022-08-02T03:25:41.829Z,44.52
2022-08-02T03:28:28.110Z,44.46
2022-08-02T03:31:14.096Z,44.51
2022-08-02T03:34:01.577Z,44.61
2022-08-02T03:36:49.347Z,44.68
2022-08-02T03:39:35.302Z,44.59
2022-08-02T03:42:21.616Z,44.95
2022-08-02T03:45:10.133Z,45.02
2022-08-02T03:47:58.749Z,45.11
2022-08-02T03:50:47.592Z,45.31
2022-08-02T03:53:34.183Z,45.16
2022-08-02T03:56:20.070Z,45.11
2022-08-02T03:59:11.414Z,45.35
2022-08-02T04:01:57.521Z,45.38
2022-08-02T04:04:43.521Z,45.53
2022-08-02T04:08:33.556Z,45.36
2022-08-02T04:10:55.931Z,45.66
2022-08-02T04:13:42.057Z,45.42
2022-08-02T04:16:33.923Z,45.83
2022-08-02T04:19:28.193Z,45.74
2022-08-02T04:22:24.573Z,45.70
2022-08-02T04:25:17.135Z,45.63
2022-08-02T04:28:16.658Z,45.61
2022-08-02T04:31:05.281Z,45.78
2022-08-02T04:33:51.179Z,45.90
2022-08-02T04:36:38.139Z,45.85
2022-08-02T04:39:24.735Z,45.87
2022-08-02T04:42:10.967Z,46.06
2022-08-02T04:44:58.076Z,46.04
2022-08-02T04:48:02.175Z,46.48
2022-08-02T04:50:50.482Z,46.53
2022-08-02T04:53:36.422Z,46.20
2022-08-02T04:56:22.246Z,46.38
2022-08-02T04:59:08.442Z,46.38
2022-08-02T05:01:54.613Z,46.30
2022-08-02T05:04:40.775Z,46.45
2022-08-02T05:07:26.802Z,46.33
2022-08-02T05:10:15.252Z,46.38
2022-08-02T05:13:01.184Z,46.33
2022-08-02T05:15:50.640Z,46.39
2022-08-02T05:18:36.802Z,46.37
2022-08-02T05:21:22.872Z,46.37
2022-08-02T05:24:09.764Z,46.24
2022-08-02T05:26:55.574Z,46.40
2022-08-02T05:29:41.655Z,46.36
2022-08-02T05:32:50.762Z,46.28
2022-08-02T05:35:36.914Z,46.55
2022-08-02T05:38:26.025Z,46.46
2022-08-02T05:41:12.476Z,46.51
2022-08-02T05:43:58.305Z,46.38
2022-08-02T05:46:44.182Z,46.42
2022-08-02T05:49:30.243Z,46.41
2022-08-02T05:52:18.418Z,46.23
2022-08-02T05:55:13.434Z,46.40
2022-08-02T05:58:26.911Z,46.38
2022-08-02T06:01:14.467Z,46.31
2022-08-02T06:04:01.142Z,46.21
2022-08-02T06:06:50.178Z,46.16
2022-08-02T06:09:36.272Z,46.48
2022-08-02T06:12:25.880Z,46.30
2022-08-02T06:15:15.075Z,46.56
2022-08-02T06:18:02.255Z,46.34
2022-08-02T06:20:50.432Z,46.08
2022-08-02T06:23:42.207Z,46.21
2022-08-02T06:26:44.972Z,46.01
2022-08-02T06:29:37.038Z,46.21
2022-08-02T06:32:26.879Z,46.03
2022-08-02T06:35:13.475Z,46.21
2022-08-02T06:38:03.182Z,46.28
2022-08-02T06:40:56.564Z,46.18
2022-08-02T06:44:27.390Z,46.34
2022-08-02T13:15:49.265Z,38.02
2022-08-02T13:18:19.469Z,36.60
2022-08-02T13:21:06.890Z,36.30
2022-08-02T13:23:54.693Z,36.09
2022-08-02T13:26:41.630Z,35.39
2022-08-02T13:29:27.740Z,35.29
2022-08-02T13:32:14.523Z,34.81
2022-08-02T13:35:01.288Z,34.85
2022-08-02T13:37:48.268Z,34.38
2022-08-02T13:40:49.232Z,34.28
2022-08-02T13:43:53.404Z,33.92
2022-08-02T13:46:45.499Z,33.54
2022-08-02T13:49:50.566Z,33.75
2022-08-02T13:52:37.960Z,33.27
2022-08-02T13:55:24.415Z,33.40
2022-08-02T13:58:10.664Z,33.20
2022-08-02T14:00:56.767Z,33.05
2022-08-02T14:04:07.497Z,32.88
2022-08-02T14:06:49.436Z,32.95
2022-08-02T14:09:38.327Z,31.97
2022-08-02T14:12:26.513Z,32.18
2022-08-02T14:15:12.449Z,32.21
2022-08-02T14:17:58.425Z,32.01
2022-08-02T14:20:45.652Z,31.61
2022-08-02T14:23:50.121Z,31.67
2022-08-02T14:26:36.748Z,31.23
2022-08-02T14:29:23.074Z,30.83
2022-08-02T14:32:08.979Z,30.42
2022-08-02T14:34:56.348Z,30.16
2022-08-02T14:37:42.963Z,29.86
2022-08-02T14:40:31.644Z,30.12
2022-08-02T14:43:37.471Z,29.76
2022-08-02T14:46:24.397Z,29.45
2022-08-02T14:49:11.354Z,29.99
2022-08-02T14:52:01.693Z,29.42
2022-08-02T14:54:48.531Z,29.25
2022-08-02T14:57:35.310Z,29.21
2022-08-02T15:00:22.264Z,28.75
2022-08-02T15:03:10.059Z,28.43
2022-08-02T15:05:56.871Z,28.47
2022-08-02T15:08:43.289Z,27.98
2022-08-02T15:11:30.190Z,27.70
2022-08-02T15:14:35.692Z,27.52
2022-08-02T15:17:22.064Z,27.38
2022-08-02T15:20:24.435Z,27.59
2022-08-02T15:23:13.803Z,27.56
2022-08-02T15:25:59.885Z,27.59
2022-08-02T15:28:46.066Z,27.11
2022-08-02T15:31:33.510Z,27.15
2022-08-02T15:34:19.735Z,26.88
2022-08-02T15:37:05.665Z,27.23
2022-08-02T15:39:51.622Z,27.09
2022-08-02T15:42:37.568Z,27.04
2022-08-02T15:45:25.511Z,26.51
2022-08-02T15:48:12.402Z,26.71
2022-08-02T15:50:58.666Z,26.67
2022-08-02T15:53:44.699Z,27.37
2022-08-02T15:56:35.505Z,27.03
2022-08-02T15:59:21.446Z,26.97
2022-08-02T16:02:08.045Z,26.99
2022-08-02T16:04:54.140Z,26.90
2022-08-02T16:07:41.266Z,26.74
2022-08-02T16:10:27.683Z,27.21
2022-08-02T16:13:32.396Z,27.24
2022-08-02T16:16:18.554Z,27.01
2022-08-02T16:19:38.764Z,27.27
2022-08-02T16:22:12.493Z,27.64
2022-08-02T16:24:58.857Z,27.02
2022-08-02T16:28:06.058Z,27.62
2022-08-02T16:31:09.901Z,27.52
2022-08-02T16:33:57.410Z,27.43
2022-08-02T16:36:44.573Z,27.30
2022-08-02T16:39:30.642Z,27.28
2022-08-02T16:42:16.783Z,27.52
2022-08-02T16:45:11.221Z,27.94
2022-08-02T16:48:03.820Z,27.49
2022-08-02T16:50:51.689Z,27.67
2022-08-02T16:53:38.756Z,27.64
2022-08-02T16:56:43.669Z,27.97
2022-08-02T16:59:42.028Z,27.92
2022-08-02T17:02:29.588Z,28.26
2022-08-02T17:05:15.581Z,27.74
2022-08-02T17:08:15.613Z,28.04
2022-08-02T17:11:03.739Z,28.17
2022-08-02T17:13:50.240Z,28.12
2022-08-02T17:16:36.297Z,28.27
2022-08-02T17:19:22.405Z,27.97
2022-08-02T17:22:10.269Z,28.15
2022-08-02T17:24:59.339Z,28.39
2022-08-02T17:27:46.187Z,28.27
2022-08-02T17:30:32.118Z,28.43
2022-08-02T17:33:18.544Z,28.40
2022-08-02T17:36:05.057Z,28.73
2022-08-02T17:38:51.937Z,28.65
2022-08-02T17:41:49.275Z,28.71
2022-08-02T17:44:38.258Z,28.97
2022-08-02T17:47:30.695Z,28.95
2022-08-02T17:50:17.459Z,28.72
2022-08-02T17:53:06.428Z,29.04
2022-08-02T17:55:52.529Z,28.75
2022-08-02T17:58:38.312Z,29.06
2022-08-02T18:04:44.311Z,29.03
2022-08-02T18:07:49.080Z,29.24
2022-08-02T18:10:39.385Z,29.31
2022-08-02T18:13:25.356Z,29.08
2022-08-02T18:16:21.360Z,29.13
2022-08-02T18:19:16.608Z,29.17
2022-08-02T18:22:03.734Z,29.14
2022-08-02T18:24:49.401Z,28.98
2022-08-02T18:27:35.833Z,29.30
2022-08-02T18:30:28.204Z,29.50
2022-08-02T18:33:56.861Z,29.57
2022-08-02T18:36:25.113Z,29.27
2022-08-02T18:39:11.625Z,29.31
2022-08-02T18:41:58.038Z,29.44
2022-08-02T18:44:45.059Z,29.37
2022-08-02T18:47:33.052Z,29.66
2022-08-02T18:50:20.039Z,29.76
2022-08-02T18:53:06.874Z,29.78
2022-08-02T18:55:59.128Z,29.59
2022-08-02T18:58:49.270Z,29.71
2022-08-02T19:01:45.028Z,29.50
2022-08-02T19:04:34.769Z,29.86
2022-08-02T19:10:27.314Z,29.85
2022-08-02T19:13:17.342Z,30.39
2022-08-02T19:16:03.754Z,30.05
2022-08-02T19:18:51.243Z,30.31
2022-08-02T19:22:17.847Z,30.43
2022-08-02T19:24:43.311Z,30.14
2022-08-02T19:27:32.625Z,30.54
2022-08-02T19:30:21.326Z,30.76
2022-08-02T19:33:11.879Z,30.67
2022-08-02T19:36:11.769Z,30.88
2022-08-02T19:38:59.392Z,30.52
2022-08-02T19:41:46.990Z,30.70
2022-08-02T19:44:33.086Z,30.93
2022-08-02T19:47:19.660Z,30.85
2022-08-02T19:50:06.787Z,31.03
2022-08-02T19:52:55.679Z,31.00
2022-08-02T19:55:59.563Z,31.22
2022-08-02T19:58:48.034Z,31.34
2022-08-02T20:01:38.802Z,31.36
2022-08-02T20:04:27.441Z,31.66
2022-08-02T20:07:13.583Z,31.33
2022-08-02T20:10:12.104Z,31.50
2022-08-02T20:12:57.957Z,31.62
2022-08-02T20:15:56.030Z,31.73
2022-08-02T20:18:43.093Z,32.13
2022-08-02T20:21:36.060Z,31.88
2022-08-02T20:24:26.561Z,31.94
2022-08-02T20:27:16.905Z,32.12
2022-08-02T20:30:08.171Z,32.08
2022-08-02T20:33:02.549Z,32.43
2022-08-02T20:36:04.770Z,32.62
2022-08-02T20:38:51.445Z,32.42
2022-08-02T20:41:45.766Z,32.51
2022-08-02T20:44:34.518Z,32.53
2022-08-02T20:47:38.849Z,32.82
2022-08-02T20:50:44.658Z,32.78
2022-08-02T20:53:31.317Z,32.92
2022-08-02T20:56:17.890Z,33.19
2022-08-02T20:59:15.624Z,33.05
2022-08-02T21:02:02.285Z,33.25
2022-08-02T21:04:48.603Z,33.39
2022-08-02T21:07:37.186Z,33.50
2022-08-02T21:10:24.192Z,33.56
2022-08-02T21:13:18.579Z,33.59
2022-08-02T21:16:08.908Z,33.76
2022-08-02T21:18:59.977Z,33.80
2022-08-02T21:21:46.619Z,33.91
2022-08-02T21:24:33.034Z,34.02
2022-08-02T21:27:53.198Z,34.21
2022-08-02T21:30:26.922Z,34.23
2022-08-02T21:33:22.421Z,34.65
2022-08-02T21:36:09.619Z,34.51
2022-08-02T21:38:57.981Z,34.39
2022-08-02T21:41:46.632Z,34.54
2022-08-02T21:44:32.977Z,34.42
2022-08-02T21:47:27.666Z,34.73
2022-08-02T21:50:16.297Z,34.84
2022-08-02T21:53:02.212Z,35.21
2022-08-02T21:56:00.167Z,35.11
2022-08-02T21:58:47.161Z,35.30
2022-08-02T22:01:35.131Z,34.86
2022-08-02T22:04:21.999Z,35.57
2022-08-02T22:07:08.220Z,35.38
2022-08-02T22:09:55.368Z,35.62
2022-08-02T22:12:41.564Z,35.64
2022-08-02T22:15:36.030Z,35.75
2022-08-02T22:18:29.442Z,35.75
2022-08-02T22:21:16.925Z,35.84
2022-08-02T22:24:05.438Z,36.34
2022-08-02T22:26:59.029Z,36.28
2022-08-02T22:29:44.812Z,36.48
2022-08-02T22:32:51.037Z,36.32
2022-08-02T22:35:37.473Z,36.37
2022-08-02T22:38:26.014Z,36.71
2022-08-02T22:41:15.749Z,36.79
2022-08-02T22:44:02.164Z,36.83
2022-08-02T22:46:50.298Z,36.77
2022-08-02T22:49:58.979Z,36.83
2022-08-02T22:52:46.839Z,37.25
2022-08-02T22:55:41.277Z,37.10
2022-08-02T22:58:27.843Z,37.29
2022-08-02T22:58:41.486Z,28.84
2022-08-02T22:58:58.415Z,30.02
2022-08-02T23:01:14.485Z,37.49
2022-08-02T23:04:00.493Z,37.72
2022-08-02T23:06:46.506Z,37.54
2022-08-02T23:09:32.412Z,37.94
2022-08-02T23:12:21.465Z,37.93
2022-08-02T23:15:08.468Z,37.88
2022-08-02T23:18:13.069Z,38.06
2022-08-02T23:20:59.909Z,38.15
2022-08-02T23:23:45.864Z,38.37
2022-08-02T23:26:31.696Z,38.38
2022-08-02T23:29:19.562Z,38.34
2022-08-02T23:32:05.515Z,38.57
2022-08-02T23:34:52.902Z,38.38
2022-08-02T23:38:00.110Z,38.69
2022-08-02T23:40:45.209Z,38.92
2022-08-02T23:43:31.163Z,38.80
2022-08-02T23:46:17.146Z,39.10
2022-08-02T23:49:03.392Z,39.48
2022-08-02T23:51:50.661Z,39.15
2022-08-02T23:54:36.970Z,39.31
2022-08-02T23:57:23.279Z,39.31
